createdAt,value
2019-03-13T00:02:03.998Z,99701.34
2019-03-13T00:04:33.615Z,99703.44
2019-03-13T00:07:03.598Z,99691.16
2019-03-13T00:09:33.246Z,99700.66
2019-03-13T00:12:02.977Z,99702.50
2019-03-13T00:14:32.626Z,99702.59
2019-03-13T00:17:03.311Z,99699.01
2019-03-13T00:19:33.145Z,99701.69
2019-03-13T00:22:02.864Z,99704.12
2019-03-13T00:24:32.545Z,99707.80
2019-03-13T00:27:02.195Z,99712.62
2019-03-13T00:29:31.861Z,99699.52
2019-03-13T00:32:01.699Z,99708.38
2019-03-13T00:34:31.701Z,99710.70
2019-03-13T00:37:01.307Z,99708.21
2019-03-13T00:39:35.714Z,99707.01
2019-03-13T00:42:07.169Z,99699.53
2019-03-13T00:44:36.822Z,99705.84
2019-03-13T00:47:06.737Z,99704.55
2019-03-13T00:49:36.390Z,99707.03
2019-03-13T00:52:06.109Z,99705.55
2019-03-13T00:54:35.770Z,99705.47
2019-03-13T00:57:05.493Z,99704.18
2019-03-13T00:59:35.211Z,99698.70
2019-03-13T01:02:22.645Z,99695.31
2019-03-13T01:05:14.423Z,99694.38
2019-03-13T01:07:44.078Z,99706.57
2019-03-13T01:10:14.075Z,99702.97
2019-03-13T01:12:44.002Z,99705.46
2019-03-13T01:15:13.897Z,99712.84
2019-03-13T01:17:43.554Z,99706.75
2019-03-13T01:20:13.564Z,99701.30
2019-03-13T01:22:43.217Z,99698.61
2019-03-13T01:25:13.019Z,99707.05
2019-03-13T01:27:42.958Z,99702.96
2019-03-13T01:30:12.989Z,99697.05
2019-03-13T01:32:49.221Z,99686.89
2019-03-13T01:35:36.086Z,99676.16
2019-03-13T01:38:05.731Z,99684.47
2019-03-13T01:40:35.381Z,99682.99
2019-03-13T01:43:05.062Z,99677.56
2019-03-13T01:45:34.774Z,99681.61
2019-03-13T01:48:04.870Z,99678.84
2019-03-13T01:50:34.593Z,99670.79
2019-03-13T01:53:04.850Z,99677.81
2019-03-13T01:55:34.501Z,99666.66
2019-03-13T01:58:04.954Z,99664.69
2019-03-13T02:00:35.053Z,99665.63
2019-03-13T02:03:05.208Z,99673.48
2019-03-13T02:05:34.870Z,99674.78
2019-03-13T02:08:04.838Z,99675.33
2019-03-13T02:10:34.496Z,99663.05
2019-03-13T02:13:04.939Z,99659.45
2019-03-13T02:15:34.683Z,99662.39
2019-03-13T02:18:04.961Z,99670.15
2019-03-13T02:20:34.658Z,99661.28
2019-03-13T02:23:05.192Z,99658.14
2019-03-13T02:25:35.031Z,99656.19
2019-03-13T02:28:05.170Z,99663.33
2019-03-13T02:30:34.829Z,99656.31
2019-03-13T02:33:05.101Z,99656.01
2019-03-13T02:35:34.785Z,99664.16
2019-03-13T02:38:05.009Z,99665.53
2019-03-13T02:40:34.662Z,99663.30
2019-03-13T02:43:05.292Z,99674.88
2019-03-13T02:45:34.954Z,99660.82
2019-03-13T02:48:05.275Z,99654.60
2019-03-13T02:50:34.947Z,99664.50
2019-03-13T02:53:05.052Z,99658.67
2019-03-13T02:55:34.749Z,99639.81
2019-03-13T02:58:05.048Z,99639.08
2019-03-13T03:00:50.157Z,99644.99
2019-03-13T03:03:29.870Z,99657.94
2019-03-13T03:06:00.489Z,99645.73
2019-03-13T03:08:30.148Z,99645.63
2019-03-13T03:10:59.834Z,99647.76
2019-03-13T03:13:29.842Z,99650.14
2019-03-13T03:15:59.498Z,99648.78
2019-03-13T03:18:30.447Z,99644.16
2019-03-13T03:21:00.306Z,99646.75
2019-03-13T03:23:29.978Z,99643.59
2019-03-13T03:26:05.988Z,99630.47
2019-03-13T03:28:35.799Z,99632.96
2019-03-13T03:31:05.524Z,99637.75
2019-03-13T03:33:35.467Z,99633.14
2019-03-13T03:36:05.098Z,99623.34
2019-03-13T03:38:34.745Z,99634.35
2019-03-13T03:41:05.284Z,99628.72
2019-03-13T03:43:40.755Z,99618.72
2019-03-13T03:46:06.526Z,99631.59
2019-03-13T03:48:36.210Z,99626.69
2019-03-13T03:51:05.934Z,99631.77
2019-03-13T03:53:35.616Z,99627.88
2019-03-13T03:56:05.545Z,99624.66
2019-03-13T03:58:35.492Z,99605.80
2019-03-13T04:01:05.266Z,99605.63
2019-03-13T04:03:34.919Z,99605.63
2019-03-13T04:06:05.147Z,99613.11
2019-03-13T04:08:37.895Z,99621.69
2019-03-13T04:11:06.448Z,99622.63
2019-03-13T04:13:36.202Z,99611.72
2019-03-13T04:16:05.855Z,99610.88
2019-03-13T04:18:35.592Z,99617.73
2019-03-13T04:21:05.394Z,99617.34
2019-03-13T04:23:35.440Z,99611.05
2019-03-13T04:26:05.300Z,99614.84
2019-03-13T04:28:34.966Z,99615.67
2019-03-13T04:31:05.310Z,99617.42
2019-03-13T04:33:35.186Z,99605.95
2019-03-13T04:36:05.149Z,99599.02
2019-03-13T04:38:34.840Z,99603.75
2019-03-13T04:41:05.413Z,99595.98
2019-03-13T04:43:35.499Z,99587.37
2019-03-13T04:46:05.261Z,99592.34
2019-03-13T04:48:34.922Z,99586.08
2019-03-13T04:51:05.172Z,99592.62
2019-03-13T04:53:34.830Z,99603.05
2019-03-13T04:56:04.974Z,99595.90
2019-03-13T04:58:34.648Z,99598.31
2019-03-13T05:01:05.118Z,99607.27
2019-03-13T05:03:35.056Z,99595.62
2019-03-13T05:06:20.963Z,99599.78
2019-03-13T05:09:00.251Z,99604.95
2019-03-13T05:11:31.480Z,99597.54
2019-03-13T05:14:01.406Z,99591.34
2019-03-13T05:16:31.070Z,99599.57
2019-03-13T05:19:00.738Z,99605.97
2019-03-13T05:21:30.667Z,99594.66
2019-03-13T05:24:00.358Z,99591.97
2019-03-13T05:26:30.022Z,99584.69
2019-03-13T05:28:59.701Z,99589.09
2019-03-13T05:31:29.356Z,99578.73
2019-03-13T05:33:59.094Z,99583.17
2019-03-13T05:36:28.750Z,99585.48
2019-03-13T05:38:58.413Z,99577.03
2019-03-13T05:41:28.174Z,99587.69
2019-03-13T05:43:57.907Z,99575.30
2019-03-13T05:46:27.559Z,99585.66
2019-03-13T05:48:57.219Z,99588.36
2019-03-13T05:51:26.957Z,99577.89
2019-03-13T05:53:56.702Z,99589.55
2019-03-13T05:56:26.354Z,99589.47
2019-03-13T05:58:56.012Z,99591.05
2019-03-13T06:01:25.674Z,99592.70
2019-03-13T06:03:55.372Z,99587.17
2019-03-13T06:06:25.022Z,99579.39
2019-03-13T06:08:54.713Z,99582.16
2019-03-13T06:11:24.358Z,99590.48
2019-03-13T06:13:54.017Z,99589.92
2019-03-13T06:16:23.859Z,99591.41
2019-03-13T06:18:53.519Z,99585.59
2019-03-13T06:21:23.187Z,99591.72
2019-03-13T06:23:52.849Z,99589.03
2019-03-13T06:26:22.749Z,99575.86
2019-03-13T06:28:52.416Z,99580.23
2019-03-13T06:31:22.071Z,99584.58
2019-03-13T06:33:51.735Z,99579.50
2019-03-13T06:36:21.388Z,99579.50
2019-03-13T06:38:51.026Z,99578.10
2019-03-13T06:41:20.732Z,99567.17
2019-03-13T06:43:50.635Z,99579.45
2019-03-13T06:46:20.291Z,99581.03
2019-03-13T06:48:49.955Z,99573.98
2019-03-13T06:51:19.603Z,99572.86
2019-03-13T06:53:49.265Z,99561.55
2019-03-13T06:56:18.993Z,99563.11
2019-03-13T06:58:54.898Z,99564.30
2019-03-13T07:01:46.348Z,99561.52
2019-03-13T07:04:37.828Z,99558.64
2019-03-13T07:07:29.275Z,99556.77
2019-03-13T07:10:06.742Z,99549.45
2019-03-13T07:12:51.167Z,99532.95
2019-03-13T07:15:44.224Z,99541.16
2019-03-13T07:18:20.054Z,99538.27
2019-03-13T07:21:14.964Z,99548.91
2019-03-13T07:23:59.646Z,99549.15
2019-03-13T07:26:57.563Z,99539.62
2019-03-13T07:29:45.690Z,99538.33
2019-03-13T07:32:37.141Z,99538.18
2019-03-13T07:35:17.715Z,99535.63
2019-03-13T07:37:55.062Z,99536.09
2019-03-13T07:40:36.654Z,99550.92
2019-03-13T07:43:24.530Z,99539.17
2019-03-13T07:46:09.902Z,99523.30
2019-03-13T07:48:58.591Z,99519.49
2019-03-13T07:51:37.014Z,99526.20
2019-03-13T07:54:40.967Z,99529.47
2019-03-13T07:57:18.298Z,99526.66
2019-03-13T08:00:05.706Z,99524.91
2019-03-13T08:02:46.567Z,99525.73
2019-03-13T08:05:33.783Z,99519.57
2019-03-13T08:08:20.194Z,99516.56
2019-03-13T08:11:27.142Z,99521.53
2019-03-13T08:14:04.432Z,99519.20
2019-03-13T08:16:51.958Z,99520.42
2019-03-13T08:19:40.634Z,99522.14
2019-03-13T08:22:29.434Z,99519.55
2019-03-13T08:25:10.355Z,99512.22
2019-03-13T08:27:59.278Z,99514.36
2019-03-13T08:30:50.779Z,99520.73
2019-03-13T08:33:37.303Z,99516.00
2019-03-13T08:36:24.538Z,99515.69
2019-03-13T08:39:12.480Z,99514.43
2019-03-13T08:42:00.193Z,99536.33
2019-03-13T08:44:47.270Z,99531.14
2019-03-13T08:47:28.241Z,99515.42
2019-03-13T08:50:06.901Z,99535.80
2019-03-13T08:52:45.479Z,99518.20
2019-03-13T08:55:26.248Z,99513.17
2019-03-13T08:58:12.672Z,99515.98
2019-03-13T09:01:08.141Z,99523.23
2019-03-13T09:04:01.531Z,99514.83
2019-03-13T09:06:53.186Z,99498.25
2019-03-13T09:09:36.468Z,99511.21
2019-03-13T09:12:30.789Z,99494.55
2019-03-13T09:15:12.405Z,99502.44
2019-03-13T09:17:48.556Z,99490.52
2019-03-13T09:20:52.358Z,99509.14
2019-03-13T09:23:41.050Z,99508.66
2019-03-13T09:26:20.653Z,99510.11
2019-03-13T09:29:08.005Z,99509.65
2019-03-13T09:31:55.601Z,99512.08
2019-03-13T09:34:59.502Z,99519.08
2019-03-13T09:37:48.437Z,99513.74
2019-03-13T09:40:24.863Z,99507.16
2019-03-13T09:43:05.911Z,99506.16
2019-03-13T09:45:43.230Z,99495.22
2019-03-13T09:48:22.133Z,99508.28
2019-03-13T09:51:01.415Z,99502.91
2019-03-13T09:53:42.692Z,99490.58
2019-03-13T09:56:24.794Z,99506.63
2019-03-13T09:59:04.026Z,99485.25
2019-03-13T10:01:55.507Z,99484.72
2019-03-13T10:04:34.084Z,99477.44
2019-03-13T10:07:23.813Z,99496.16
2019-03-13T10:10:06.166Z,99492.19
2019-03-13T10:12:42.391Z,99490.06
2019-03-13T10:15:34.347Z,99491.86
2019-03-13T10:18:10.557Z,99478.47
2019-03-13T10:20:59.394Z,99481.22
2019-03-13T10:23:48.332Z,99471.14
2019-03-13T10:26:42.983Z,99463.55
2019-03-13T10:29:27.031Z,99472.77
2019-03-13T10:32:27.968Z,99462.20
2019-03-13T10:35:06.480Z,99470.55
2019-03-13T10:37:47.453Z,99464.07
2019-03-13T10:40:48.323Z,99464.91
2019-03-13T10:43:25.389Z,99458.91
2019-03-13T10:46:12.530Z,99467.73
2019-03-13T10:48:54.297Z,99457.41
2019-03-13T10:51:35.292Z,99455.74
2019-03-13T10:54:36.511Z,99463.33
2019-03-13T10:57:24.158Z,99464.51
2019-03-13T11:00:03.190Z,99456.47
2019-03-13T11:02:53.774Z,99443.03
2019-03-13T11:05:43.111Z,99447.76
2019-03-13T11:08:20.290Z,99456.34
2019-03-13T11:11:07.682Z,99446.08
2019-03-13T11:13:52.954Z,99451.97
2019-03-13T11:16:53.604Z,99443.66
2019-03-13T11:19:41.136Z,99454.98
2019-03-13T11:22:32.298Z,99443.05
2019-03-13T11:25:12.656Z,99436.08
2019-03-13T11:28:04.197Z,99435.50
2019-03-13T11:30:57.123Z,99465.33
2019-03-13T11:33:34.164Z,99453.17
2019-03-13T11:36:25.726Z,99461.75
2019-03-13T11:39:06.023Z,99454.09
2019-03-13T11:41:54.743Z,99440.74
2019-03-13T11:44:42.372Z,99439.10
2019-03-13T11:47:18.215Z,99440.02
2019-03-13T11:50:19.171Z,99447.45
2019-03-13T11:52:58.892Z,99454.40
2019-03-13T11:55:40.023Z,99447.45
2019-03-13T11:58:31.930Z,99451.34
2019-03-13T12:01:07.433Z,99445.44
2019-03-13T12:04:03.014Z,99435.87
2019-03-13T12:06:54.796Z,99450.82
2019-03-13T12:09:46.424Z,99449.98
2019-03-13T12:12:31.261Z,99458.30
2019-03-13T12:15:16.092Z,99444.46
2019-03-13T12:18:05.073Z,99450.64
2019-03-13T12:20:40.476Z,99442.78
2019-03-13T12:23:20.878Z,99458.59
2019-03-13T12:26:03.304Z,99449.94
2019-03-13T12:28:39.682Z,99445.89
2019-03-13T12:31:22.854Z,99423.25
2019-03-13T12:34:17.621Z,99412.05
2019-03-13T12:37:09.323Z,99408.84
2019-03-13T12:39:50.188Z,99406.98
2019-03-13T12:42:43.565Z,99413.13
2019-03-13T12:45:25.685Z,99411.26
2019-03-13T12:48:01.492Z,99420.97
2019-03-13T12:50:36.394Z,99434.09
2019-03-13T12:53:23.723Z,99434.59
2019-03-13T12:56:11.013Z,99436.83
2019-03-13T12:59:18.687Z,99416.70
2019-03-13T13:02:07.368Z,99420.59
2019-03-13T13:05:05.071Z,99407.26
2019-03-13T13:07:54.026Z,99431.47
2019-03-13T13:10:32.931Z,99414.27
2019-03-13T13:13:21.903Z,99421.63
2019-03-13T13:15:59.646Z,99422.50
2019-03-13T13:18:45.194Z,99433.59
2019-03-13T13:21:15.099Z,99439.13
2019-03-13T13:23:44.760Z,99438.52
2019-03-13T13:26:14.425Z,99438.97
2019-03-13T13:28:44.170Z,99437.11
2019-03-13T13:31:14.011Z,99444.23
2019-03-13T13:33:43.654Z,99448.34
2019-03-13T13:36:13.313Z,99439.42
2019-03-13T13:38:43.122Z,99444.53
2019-03-13T13:41:13.091Z,99442.55
2019-03-13T13:43:43.722Z,99433.97
2019-03-13T13:46:21.950Z,99440.25
2019-03-13T13:48:51.602Z,99445.59
2019-03-13T13:51:21.504Z,99448.52
2019-03-13T13:53:51.234Z,99439.82
2019-03-13T13:56:21.056Z,99448.33
2019-03-13T13:58:50.701Z,99441.27
2019-03-13T14:01:20.361Z,99430.46
2019-03-13T14:03:50.221Z,99436.40
2019-03-13T14:06:19.876Z,99425.79
2019-03-13T14:08:49.526Z,99431.95
2019-03-13T14:11:19.190Z,99444.64
2019-03-13T14:13:48.862Z,99454.99
2019-03-13T14:16:18.654Z,99439.32
2019-03-13T14:18:48.410Z,99431.93
2019-03-13T14:21:18.087Z,99422.98
2019-03-13T14:23:47.751Z,99438.55
2019-03-13T14:26:17.597Z,99435.98
2019-03-13T14:28:47.322Z,99444.81
2019-03-13T14:31:17.064Z,99445.20
2019-03-13T14:33:46.731Z,99451.95
2019-03-13T14:36:16.455Z,99436.13
2019-03-13T14:38:46.119Z,99441.12
2019-03-13T14:41:16.038Z,99437.22
2019-03-13T14:43:45.908Z,99451.63
2019-03-13T14:46:15.708Z,99445.92
2019-03-13T14:48:45.363Z,99458.63
2019-03-13T14:51:15.023Z,99471.02
2019-03-13T14:53:44.682Z,99479.98
2019-03-13T14:56:14.921Z,99480.13
2019-03-13T14:58:44.587Z,99471.05
2019-03-13T15:01:14.313Z,99467.92
2019-03-13T15:03:44.223Z,99458.59
2019-03-13T15:06:13.886Z,99457.89
2019-03-13T15:08:43.775Z,99458.16
2019-03-13T15:11:13.496Z,99466.80
2019-03-13T15:13:43.228Z,99467.77
2019-03-13T15:16:12.958Z,99463.17
2019-03-13T15:18:42.615Z,99461.41
2019-03-13T15:21:12.298Z,99471.47
2019-03-13T15:23:41.953Z,99466.41
2019-03-13T15:26:11.609Z,99476.80
2019-03-13T15:28:41.355Z,99484.73
2019-03-13T15:31:11.011Z,99486.83
2019-03-13T15:33:40.658Z,99486.95
2019-03-13T15:36:10.569Z,99486.49
2019-03-13T15:38:40.221Z,99488.72
2019-03-13T15:41:10.914Z,99489.30
2019-03-13T15:43:40.628Z,99495.45
2019-03-13T15:46:10.676Z,99483.88
2019-03-13T15:48:40.511Z,99480.33
2019-03-13T15:51:10.164Z,99484.48
2019-03-13T15:53:39.838Z,99486.61
2019-03-13T15:56:09.500Z,99491.55
2019-03-13T15:58:39.423Z,99494.86
2019-03-13T16:01:09.213Z,99490.96
2019-03-13T16:03:38.878Z,99492.60
2019-03-13T16:06:08.717Z,99495.92
2019-03-13T16:08:38.375Z,99498.77
2019-03-13T16:11:09.489Z,99509.51
2019-03-13T16:13:39.393Z,99503.01
2019-03-13T16:16:09.146Z,99505.73
2019-03-13T16:18:38.816Z,99513.78
2019-03-13T16:21:08.557Z,99519.09
2019-03-13T16:23:38.371Z,99525.69
2019-03-13T16:26:08.027Z,99531.59
2019-03-13T16:28:37.708Z,99533.98
2019-03-13T16:31:08.206Z,99542.04
2019-03-13T16:33:37.927Z,99533.16
2019-03-13T16:36:07.590Z,99538.63
2019-03-13T16:38:37.373Z,99540.06
2019-03-13T16:41:07.406Z,99545.51
2019-03-13T16:43:37.074Z,99541.27
2019-03-13T16:46:09.758Z,99550.37
2019-03-13T16:48:39.420Z,99549.99
2019-03-13T16:51:09.077Z,99547.27
2019-03-13T16:53:38.735Z,99558.05
2019-03-13T16:56:08.381Z,99557.59
2019-03-13T16:58:38.384Z,99557.01
2019-03-13T17:01:08.198Z,99565.86
2019-03-13T17:03:38.602Z,99564.09
2019-03-13T17:06:08.512Z,99570.72
2019-03-13T17:08:38.183Z,99581.92
2019-03-13T17:11:07.902Z,99599.78
2019-03-13T17:13:37.907Z,99605.63
2019-03-13T17:16:07.695Z,99625.53
2019-03-13T17:18:37.382Z,99613.58
2019-03-13T17:21:07.548Z,99621.35
2019-03-13T17:23:37.837Z,99619.91
2019-03-13T17:26:07.582Z,99614.39
2019-03-13T17:28:40.335Z,99623.11
2019-03-13T17:31:09.993Z,99630.33
2019-03-13T17:33:39.919Z,99625.05
2019-03-13T17:36:09.733Z,99635.32
2019-03-13T17:38:39.433Z,99636.50
2019-03-13T17:41:09.112Z,99631.07
2019-03-13T17:43:39.777Z,99642.77
2019-03-13T17:46:09.510Z,99648.94
2019-03-13T17:48:39.387Z,99653.42
2019-03-13T17:51:09.034Z,99655.32
2019-03-13T17:53:38.900Z,99663.03
2019-03-13T17:56:08.837Z,99676.95
2019-03-13T17:58:38.616Z,99677.42
2019-03-13T18:01:09.507Z,99678.38
2019-03-13T18:03:39.175Z,99687.01
2019-03-13T18:06:09.112Z,99687.47
2019-03-13T18:08:39.008Z,99695.38
2019-03-13T18:11:09.352Z,99692.78
2019-03-13T18:13:39.030Z,99706.70
2019-03-13T18:16:08.678Z,99715.59
2019-03-13T18:18:38.588Z,99712.88
2019-03-13T18:21:08.336Z,99712.30
2019-03-13T18:23:38.000Z,99718.55
2019-03-13T18:26:08.027Z,99730.70
2019-03-13T18:28:37.700Z,99738.16
2019-03-13T18:31:07.617Z,99744.27
2019-03-13T18:33:37.328Z,99749.97
2019-03-13T18:36:08.268Z,99739.88
2019-03-13T18:38:37.954Z,99746.50
2019-03-13T18:41:07.688Z,99756.89
2019-03-13T18:43:37.355Z,99776.92
2019-03-13T18:46:07.159Z,99780.44
2019-03-13T18:48:36.823Z,99791.98
2019-03-13T18:51:06.494Z,99808.50
2019-03-13T18:53:36.142Z,99796.72
2019-03-13T18:56:06.056Z,99800.45
2019-03-13T18:58:39.045Z,99809.45
2019-03-13T19:01:26.296Z,99806.81
2019-03-13T19:10:20.349Z,99823.57
2019-03-13T19:12:50.308Z,99814.29
2019-03-13T19:15:40.069Z,99815.66
2019-03-13T19:18:09.758Z,99837.94
2019-03-13T19:23:26.813Z,99844.32
2019-03-13T19:25:56.545Z,99848.80
2019-03-13T19:28:26.698Z,99854.52
2019-03-13T19:30:56.522Z,99853.78
2019-03-13T19:33:26.504Z,99863.61
2019-03-13T19:35:56.170Z,99863.22
2019-03-13T19:38:25.852Z,99859.78
2019-03-13T19:40:55.509Z,99862.88
2019-03-13T19:43:25.444Z,99868.41
2019-03-13T19:45:55.188Z,99867.57
2019-03-13T19:48:24.869Z,99869.25
2019-03-13T19:50:56.601Z,99882.05
2019-03-13T19:53:26.204Z,99881.59
2019-03-13T19:55:55.870Z,99881.24
2019-03-13T19:58:26.793Z,99884.74
2019-03-13T20:00:56.455Z,99895.86
2019-03-13T20:03:26.198Z,99894.39
2019-03-13T20:05:56.011Z,99892.36
2019-03-13T20:08:25.670Z,99910.04
2019-03-13T20:10:57.950Z,99901.90
2019-03-13T20:13:28.178Z,99905.69
2019-03-13T20:15:58.242Z,99908.91
2019-03-13T20:18:27.996Z,99915.33
2019-03-13T20:20:57.685Z,99914.38
2019-03-13T20:23:27.347Z,99924.03
2019-03-13T20:25:57.256Z,99926.45
2019-03-13T20:28:27.300Z,99933.67
2019-03-13T20:30:57.041Z,99935.14
2019-03-13T20:33:26.954Z,99937.42
2019-03-13T20:35:56.697Z,99942.16
2019-03-13T20:38:26.436Z,99944.00
2019-03-13T20:40:56.245Z,99949.93
2019-03-13T20:43:25.925Z,99961.97
2019-03-13T20:45:56.132Z,99959.76
2019-03-13T20:48:25.805Z,99964.46
2019-03-13T20:50:55.469Z,99966.49
2019-03-13T20:53:26.073Z,99961.22
2019-03-13T20:55:58.645Z,99962.03
2019-03-13T20:58:27.363Z,99976.48
2019-03-13T21:00:57.027Z,99976.98
2019-03-13T21:03:26.750Z,99988.10
2019-03-13T21:05:56.419Z,99997.38
2019-03-13T21:08:26.082Z,99990.88
2019-03-13T21:10:55.917Z,99984.20
2019-03-13T21:13:25.864Z,99990.31
2019-03-13T21:15:55.838Z,99990.31
2019-03-13T21:18:25.494Z,99993.75
2019-03-13T21:20:55.405Z,99998.11
2019-03-13T21:23:25.064Z,100005.16
2019-03-13T21:25:54.749Z,100008.22
2019-03-13T21:28:24.424Z,100014.82
2019-03-13T21:30:54.159Z,100017.52
2019-03-13T21:33:23.892Z,100030.69
2019-03-13T21:35:53.555Z,100037.39
2019-03-13T21:38:23.501Z,100034.23
2019-03-13T21:40:54.444Z,100037.49
2019-03-13T21:43:24.402Z,100046.94
2019-03-13T21:45:54.072Z,100052.69
2019-03-13T21:48:23.797Z,100054.20
2019-03-13T21:50:53.475Z,100068.09
2019-03-13T21:53:23.230Z,100067.08
2019-03-13T21:55:52.895Z,100069.50
2019-03-13T21:58:22.560Z,100071.88
2019-03-13T22:00:52.223Z,100075.88
2019-03-13T22:03:28.776Z,100078.94
2019-03-13T22:05:53.625Z,100078.30
2019-03-13T22:08:23.692Z,100087.11
2019-03-13T22:10:53.368Z,100087.66
2019-03-13T22:13:23.196Z,100088.33
2019-03-13T22:15:52.948Z,100092.88
2019-03-13T22:18:22.809Z,100099.47
2019-03-13T22:20:52.487Z,100095.64
2019-03-13T22:23:22.167Z,100098.73
2019-03-13T22:25:51.835Z,100101.78
2019-03-13T22:28:21.511Z,100100.94
2019-03-13T22:30:51.194Z,100107.11
2019-03-13T22:33:20.877Z,100103.63
2019-03-13T22:35:50.521Z,100105.17
2019-03-13T22:38:20.288Z,100116.02
2019-03-13T22:40:49.962Z,100123.36
2019-03-13T22:43:19.691Z,100124.82
2019-03-13T22:45:49.423Z,100127.23
2019-03-13T22:48:19.099Z,100128.52
2019-03-13T22:50:49.899Z,100133.98
2019-03-13T22:53:20.527Z,100137.33
2019-03-13T22:55:50.194Z,100134.64
2019-03-13T22:58:19.932Z,100139.70
2019-03-13T23:01:01.917Z,100140.55
2019-03-13T23:03:33.321Z,100145.89
2019-03-13T23:06:03.305Z,100146.05
2019-03-13T23:08:32.985Z,100151.69
2019-03-13T23:11:02.789Z,100156.97
2019-03-13T23:13:32.447Z,100155.77
2019-03-13T23:16:02.196Z,100163.41
2019-03-13T23:18:32.111Z,100165.65
2019-03-13T23:21:01.799Z,100174.42
2019-03-13T23:23:32.200Z,100173.88
2019-03-13T23:26:01.849Z,100173.58
2019-03-13T23:28:31.581Z,100176.92
2019-03-13T23:31:01.316Z,100170.44
2019-03-13T23:33:30.971Z,100185.09
2019-03-13T23:36:00.625Z,100178.97
2019-03-13T23:38:30.303Z,100184.91
2019-03-13T23:41:00.143Z,100185.45
2019-03-13T23:43:29.824Z,100187.50
2019-03-13T23:46:00.140Z,100188.73
2019-03-13T23:48:29.819Z,100187.44
2019-03-13T23:50:59.476Z,100198.35
2019-03-13T23:53:29.151Z,100193.53
2019-03-13T23:55:58.824Z,100198.15
2019-03-13T23:58:28.740Z,100196.37
